createdAt,value
2023-04-15T00:02:42.325Z,7.36
2023-04-15T00:07:41.454Z,7.29
2023-04-15T00:12:41.380Z,7.34
2023-04-15T00:17:40.324Z,7.34
2023-04-15T00:22:39.280Z,7.38
2023-04-15T00:27:38.846Z,7.37
2023-04-15T00:32:37.754Z,7.30
2023-04-15T00:37:37.018Z,7.57
2023-04-15T00:42:36.662Z,7.47
2023-04-15T00:47:37.436Z,7.52
2023-04-15T00:52:36.530Z,7.48
2023-04-15T00:57:36.916Z,7.46
2023-04-15T01:02:36.913Z,7.54
2023-04-15T01:07:36.016Z,7.57
2023-04-15T01:12:35.945Z,7.51
2023-04-15T01:17:35.170Z,7.64
2023-04-15T01:22:34.915Z,7.39
2023-04-15T01:27:35.851Z,7.42
2023-04-15T01:32:34.655Z,7.51
2023-04-15T01:37:34.069Z,7.51
2023-04-15T01:42:32.895Z,7.57
2023-04-15T01:47:32.194Z,7.75
2023-04-15T01:52:31.037Z,7.88
2023-04-15T01:57:29.813Z,7.79
2023-04-15T02:02:31.095Z,7.69
2023-04-15T02:07:32.322Z,7.65
2023-04-15T02:12:31.390Z,7.52
2023-04-15T02:17:30.185Z,7.43
2023-04-15T02:22:30.324Z,7.38
2023-04-15T02:27:29.228Z,7.43
2023-04-15T02:32:29.036Z,7.51
2023-04-15T02:37:28.717Z,7.42
2023-04-15T02:42:28.894Z,7.52
2023-04-15T02:47:27.666Z,7.71
2023-04-15T02:52:26.686Z,7.63
2023-04-15T02:57:25.451Z,7.48
2023-04-15T03:02:24.833Z,7.58
2023-04-15T03:07:23.694Z,7.46
2023-04-15T03:12:22.944Z,7.43
2023-04-15T03:17:23.908Z,7.67
2023-04-15T03:22:23.005Z,7.62
2023-04-15T03:27:25.580Z,7.58
2023-04-15T03:32:27.450Z,7.55
2023-04-15T03:37:26.421Z,7.43
2023-04-15T03:42:25.221Z,7.43
2023-04-15T03:47:24.188Z,8.43
2023-04-15T03:52:23.136Z,9.56
2023-04-15T03:57:21.899Z,10.30
2023-04-15T04:02:21.188Z,10.65
2023-04-15T04:07:20.350Z,11.04
2023-04-15T04:12:19.125Z,11.73
2023-04-15T04:17:18.062Z,11.56
2023-04-15T04:22:16.854Z,11.40
2023-04-15T04:27:16.160Z,11.12
2023-04-15T04:32:15.148Z,10.72
2023-04-15T04:37:14.421Z,9.37
2023-04-15T04:42:13.248Z,8.82
2023-04-15T04:47:12.055Z,8.97
2023-04-15T04:52:11.075Z,8.76
2023-04-15T04:57:10.005Z,8.81
2023-04-15T05:02:08.983Z,8.74
2023-04-15T05:07:08.471Z,8.36
2023-04-15T05:12:09.038Z,8.67
2023-04-15T05:17:08.506Z,8.71
2023-04-15T05:22:07.929Z,8.60
2023-04-15T05:27:08.561Z,8.91
2023-04-15T05:32:07.415Z,8.97
2023-04-15T05:37:06.230Z,8.88
2023-04-15T05:42:06.165Z,8.92
2023-04-15T05:47:06.012Z,9.11
2023-04-15T05:52:05.111Z,8.84
2023-04-15T05:57:04.112Z,8.16
2023-04-15T06:02:03.126Z,8.82
2023-04-15T06:07:02.031Z,9.11
2023-04-15T06:12:01.959Z,9.00
2023-04-15T06:17:00.778Z,8.98
2023-04-15T06:21:59.779Z,8.95
2023-04-15T06:26:58.799Z,9.10
2023-04-15T06:31:57.849Z,9.22
2023-04-15T06:36:57.520Z,8.88
2023-04-15T06:41:56.808Z,9.18
2023-04-15T06:46:55.683Z,9.02
2023-04-15T06:51:54.520Z,9.41
2023-04-15T06:56:53.435Z,9.36
2023-04-15T07:01:52.290Z,9.24
2023-04-15T07:06:51.149Z,9.46
2023-04-15T07:11:50.089Z,9.44
2023-04-15T07:16:49.026Z,9.20
2023-04-15T07:21:48.009Z,9.03
2023-04-15T07:26:47.140Z,9.46
2023-04-15T07:31:46.437Z,9.24
2023-04-15T07:42:30.610Z,9.89
2023-04-15T07:47:29.595Z,10.00
2023-04-15T07:52:28.639Z,10.33
2023-04-15T07:57:27.372Z,10.39
2023-04-15T08:02:26.803Z,10.48
2023-04-15T08:07:26.354Z,10.31
2023-04-15T08:12:25.917Z,10.18
2023-04-15T08:17:25.066Z,10.18
2023-04-15T08:22:24.248Z,10.25
2023-04-15T08:27:23.187Z,10.28
2023-04-15T08:32:22.747Z,10.14
2023-04-15T08:37:21.604Z,9.92
2023-04-15T08:42:37.036Z,9.95
2023-04-15T08:47:38.661Z,10.00
2023-04-15T08:52:38.451Z,10.12
2023-04-15T08:57:38.418Z,10.07
2023-04-15T09:02:37.650Z,10.09
2023-04-15T09:07:36.857Z,9.80
2023-04-15T09:12:36.882Z,9.55
2023-04-15T09:17:35.643Z,9.41
2023-04-15T09:22:34.440Z,10.06
2023-04-15T09:27:37.501Z,9.93
2023-04-15T09:33:02.432Z,10.02
2023-04-15T09:38:07.509Z,10.43
2023-04-15T09:43:08.160Z,9.73
2023-04-15T09:48:22.110Z,10.07
2023-04-15T09:53:23.372Z,9.68
2023-04-15T09:58:23.916Z,9.81
2023-04-15T10:03:28.269Z,10.11
2023-04-15T10:08:29.450Z,9.68
2023-04-15T10:13:36.498Z,9.58
2023-04-15T10:18:38.181Z,9.40
2023-04-15T10:23:38.544Z,9.76
2023-04-15T10:28:37.318Z,9.33
2023-04-15T10:33:36.693Z,9.41
2023-04-15T10:38:39.491Z,9.90
2023-04-15T10:43:38.390Z,9.69
2023-04-15T10:48:37.276Z,9.60
2023-04-15T10:53:37.939Z,9.99
2023-04-15T10:58:43.833Z,9.99
2023-04-15T11:03:43.663Z,10.10
2023-04-15T11:09:02.625Z,10.01
2023-04-15T11:14:03.178Z,10.24
2023-04-15T11:19:02.556Z,10.20
2023-04-15T11:24:02.288Z,10.44
2023-04-15T11:29:02.320Z,10.05
2023-04-15T11:34:04.333Z,9.95
2023-04-15T11:39:07.330Z,10.48
2023-04-15T11:44:17.082Z,10.09
2023-04-15T11:49:30.842Z,10.45
2023-04-15T11:54:29.580Z,10.26
2023-04-15T11:59:45.343Z,10.39
2023-04-15T12:04:46.055Z,10.16
2023-04-15T12:09:56.849Z,10.21
2023-04-15T12:14:57.238Z,10.53
2023-04-15T12:19:56.772Z,10.74
2023-04-15T12:24:57.505Z,11.11
2023-04-15T12:30:05.045Z,11.24
2023-04-15T12:35:03.928Z,10.89
2023-04-15T12:40:02.962Z,10.81
2023-04-15T12:45:02.454Z,11.11
2023-04-15T12:50:01.413Z,10.82
2023-04-15T12:55:00.571Z,10.45
2023-04-15T12:59:59.312Z,10.35
2023-04-15T13:04:58.069Z,10.60
2023-04-15T13:09:57.076Z,10.88
2023-04-15T13:14:56.154Z,11.29
2023-04-15T13:19:54.933Z,11.70
2023-04-15T13:24:53.777Z,11.39
2023-04-15T13:29:52.865Z,11.81
2023-04-15T13:34:51.740Z,12.32
2023-04-15T13:39:50.460Z,12.21
2023-04-15T13:44:52.595Z,12.31
2023-04-15T13:49:53.051Z,12.26
2023-04-15T13:55:08.779Z,12.75
2023-04-15T14:00:11.872Z,12.41
2023-04-15T14:05:11.391Z,12.31
2023-04-15T14:10:10.256Z,12.36
2023-04-15T14:15:09.488Z,12.10
2023-04-15T14:20:09.636Z,12.74
2023-04-15T14:25:08.571Z,12.88
2023-04-15T14:30:08.048Z,12.80
2023-04-15T14:35:07.196Z,12.88
2023-04-15T14:40:06.767Z,12.76
2023-04-15T14:45:06.278Z,12.85
2023-04-15T14:50:05.558Z,13.00
2023-04-15T14:55:10.537Z,13.30
2023-04-15T15:00:13.173Z,13.36
2023-04-15T15:05:15.029Z,13.70
2023-04-15T15:10:14.103Z,13.54
2023-04-15T15:15:28.112Z,13.62
2023-04-15T15:20:27.748Z,13.26
2023-04-15T15:25:26.927Z,13.49
2023-04-15T15:30:25.952Z,13.67
2023-04-15T15:35:26.031Z,13.33
2023-04-15T15:40:25.363Z,13.55
2023-04-15T15:45:24.318Z,13.47
2023-04-15T15:50:23.186Z,13.26
2023-04-15T15:55:22.129Z,13.03
2023-04-15T16:00:21.498Z,13.09
2023-04-15T16:05:20.393Z,12.83
2023-04-15T16:10:19.151Z,12.45
2023-04-15T16:15:18.180Z,12.36
2023-04-15T16:20:17.258Z,12.39
2023-04-15T16:25:16.203Z,12.43
2023-04-15T16:30:15.379Z,12.45
2023-04-15T16:35:16.405Z,12.49
2023-04-15T16:40:15.214Z,12.28
2023-04-15T16:45:14.029Z,11.70
2023-04-15T16:50:12.811Z,11.94
2023-04-15T16:55:11.803Z,11.93
2023-04-15T17:00:11.129Z,11.88
2023-04-15T17:05:12.882Z,11.88
2023-04-15T17:10:13.971Z,11.78
2023-04-15T17:15:12.837Z,11.73
2023-04-15T17:20:12.566Z,11.63
2023-04-15T17:25:11.391Z,12.49
2023-04-15T17:30:10.721Z,11.77
2023-04-15T17:35:09.954Z,11.73
2023-04-15T17:40:10.328Z,11.42
2023-04-15T17:45:09.624Z,11.46
2023-04-15T17:50:09.012Z,11.26
2023-04-15T17:55:08.227Z,11.12
2023-04-15T18:00:10.864Z,10.96
2023-04-15T18:05:12.308Z,10.98
2023-04-15T18:10:11.670Z,11.04
2023-04-15T18:15:11.304Z,11.28
2023-04-15T18:20:10.614Z,11.13
2023-04-15T18:25:09.863Z,10.98
2023-04-15T18:30:10.553Z,11.23
2023-04-15T18:35:09.722Z,10.95
2023-04-15T18:40:09.379Z,10.89
2023-04-15T18:45:08.660Z,11.04
2023-04-15T18:50:08.257Z,10.85
2023-04-15T18:55:07.444Z,10.80
2023-04-15T19:00:06.828Z,10.84
2023-04-15T19:05:06.044Z,10.69
2023-04-15T19:10:10.413Z,10.51
2023-04-15T19:15:09.944Z,10.49
2023-04-15T19:20:09.032Z,10.83
2023-04-15T19:25:08.144Z,10.14
2023-04-15T19:30:07.870Z,10.33
2023-04-15T19:35:07.573Z,10.08
2023-04-15T19:40:09.311Z,10.04
2023-04-15T19:45:08.615Z,10.20
2023-04-15T19:50:07.984Z,9.82
2023-04-15T19:55:07.217Z,9.83
2023-04-15T20:00:07.221Z,9.68
2023-04-15T20:05:09.977Z,9.41
2023-04-15T20:10:13.195Z,9.58
2023-04-15T20:15:12.117Z,9.01
2023-04-15T20:20:11.226Z,9.12
2023-04-15T20:25:10.303Z,8.78
2023-04-15T20:30:09.600Z,8.70
2023-04-15T20:35:08.568Z,8.74
2023-04-15T20:40:08.048Z,8.63
2023-04-15T20:45:07.771Z,8.50
2023-04-15T20:50:07.315Z,8.64
2023-04-15T20:55:07.464Z,8.78
2023-04-15T21:00:07.122Z,8.96
2023-04-15T21:05:06.434Z,8.69
2023-04-15T21:10:05.607Z,8.56
2023-04-15T21:15:04.892Z,8.43
2023-04-15T21:20:04.329Z,8.53
2023-04-15T21:25:03.298Z,8.37
2023-04-15T21:30:03.124Z,8.30
2023-04-15T21:35:01.974Z,8.24
2023-04-15T21:40:01.159Z,8.18
2023-04-15T21:45:00.009Z,8.16
2023-04-15T21:49:58.807Z,7.88
2023-04-15T21:54:57.579Z,8.03
2023-04-15T21:59:56.365Z,8.28
2023-04-15T22:04:55.478Z,8.02
2023-04-15T22:09:54.780Z,7.94
2023-04-15T22:14:55.814Z,8.06
2023-04-15T22:19:54.967Z,7.83
2023-04-15T22:24:53.726Z,7.73
2023-04-15T22:29:53.383Z,7.69
2023-04-15T22:34:52.502Z,7.81
2023-04-15T22:39:51.986Z,7.61
2023-04-15T22:44:51.482Z,7.68
2023-04-15T22:49:50.397Z,7.87
2023-04-15T22:54:49.487Z,7.70
2023-04-15T22:59:48.328Z,7.72
2023-04-15T23:04:47.507Z,7.87
2023-04-15T23:09:46.274Z,7.78
2023-04-15T23:14:45.536Z,7.77
2023-04-15T23:19:44.465Z,7.42
2023-04-15T23:24:43.456Z,7.50
2023-04-15T23:29:42.546Z,7.88
2023-04-15T23:34:41.780Z,7.65
2023-04-15T23:39:40.548Z,7.42
2023-04-15T23:44:39.423Z,7.46
2023-04-15T23:49:40.978Z,7.44
2023-04-15T23:54:39.937Z,7.89
2023-04-15T23:59:38.688Z,7.62
